Terminal Aerodrome Forecast
Issued by NWS

Home | Current Version | Previous Version | Text Only | Print | Product List | Glossary On
Versions: 1 2 3 4 5 6 7 8 9 10 11 12 13 14 15 16 17 18 19 20 21 22
541
FTUS41 KPHI 020312 AAB
TAFMIV
TAF AMD
KMIV 020312Z 0203/0224 04004KT P6SM OVC005
     FM020600 08003KT 2SM -DZ BR OVC002
     FM021400 08004KT 3SM -SHRA BR OVC004
     FM021800 18005KT 5SM BR OVC007
     FM022000 18005KT P6SM OVC015
     FM022300 17005KT 5SM SHRA BR OVC008=

USA.gov is the U.S. government's official web portal to all federal, state and local government web resources and services.